Time;durP1;ratioP1;P1;durP2;ratioP2;P2;SDS_P1;SDS_P2;PMS_P1;PMS_P2;Temp;Humidity;BMP_temperature;BMP_pressure;BME280_temperature;BME280_humidity;BME280_pressure;Samples;Min_cycle;Max_cycle;Signal;HPM_P1;HPM_P2
2021/08/11 00:01:16;;;;;;;8.80;3.90;;;;;;;16.25;82.59;96907.59;3594582;39;20773;-77
2021/08/11 00:03:44;;;;;;;7.20;3.50;;;;;;;16.17;83.17;96907.41;3595715;39;20977;-76
2021/08/11 00:06:12;;;;;;;7.50;3.67;;;;;;;16.08;83.23;96905.59;3594645;39;20668;-75
2021/08/11 00:08:40;;;;;;;7.40;3.80;;;;;;;16.10;83.57;96901.00;3595353;39;20514;-74
2021/08/11 00:11:08;;;;;;;11.30;4.43;;;;;;;16.11;83.35;96905.31;3595423;39;20578;-75
2021/08/11 00:13:36;;;;;;;11.17;4.40;;;;;;;16.16;83.38;96903.09;3596059;39;20453;-73
2021/08/11 00:16:04;;;;;;;10.10;3.63;;;;;;;16.27;82.38;96900.38;3595676;39;20950;-75
2021/08/11 00:18:34;;;;;;;6.50;4.00;;;;;;;16.18;83.24;96904.63;3596098;39;20427;-75
2021/08/11 00:21:02;;;;;;;8.13;3.50;;;;;;;15.82;84.78;96909.47;3594862;39;20825;-74
2021/08/11 00:23:29;;;;;;;5.63;3.50;;;;;;;15.68;86.06;96903.66;3593904;39;20467;-75
2021/08/11 00:25:57;;;;;;;5.80;3.97;;;;;;;15.82;85.16;96906.00;3597722;39;20456;-73
2021/08/11 00:28:26;;;;;;;6.47;3.80;;;;;;;15.96;84.52;96903.03;3595968;39;20458;-75
2021/08/11 00:30:54;;;;;;;5.00;3.90;;;;;;;16.11;83.58;96900.88;3596507;39;21104;-75
2021/08/11 00:33:22;;;;;;;13.33;3.60;;;;;;;16.10;83.59;96903.66;3596627;39;20467;-74
2021/08/11 00:35:52;;;;;;;13.63;4.20;;;;;;;16.17;83.23;96899.47;3594447;39;21164;-76
2021/08/11 00:38:22;;;;;;;8.07;3.53;;;;;;;16.19;82.71;96889.63;3596297;39;20455;-72
2021/08/11 00:40:50;;;;;;;10.67;3.70;;;;;;;16.23;82.93;96898.97;3595485;39;20859;-73
2021/08/11 00:43:18;;;;;;;4.57;3.17;;;;;;;16.23;82.72;96892.84;3596920;39;20534;-73
2021/08/11 00:45:46;;;;;;;5.20;3.00;;;;;;;16.21;82.92;96895.63;3597734;39;20435;-74
2021/08/11 00:48:15;;;;;;;11.70;3.70;;;;;;;16.24;82.83;96900.63;3597615;39;20827;-73
2021/08/11 00:50:43;;;;;;;6.13;3.50;;;;;;;16.25;82.72;96896.19;3597011;39;20502;-73
2021/08/11 00:53:17;;;;;;;3.33;2.90;;;;;;;16.17;82.75;96887.13;3598096;39;20717;-74
2021/08/11 00:55:45;;;;;;;8.50;3.00;;;;;;;16.15;82.59;96893.50;3596256;39;21044;-75
2021/08/11 00:58:14;;;;;;;3.93;3.07;;;;;;;16.18;82.66;96888.78;3598472;39;20447;-75
2021/08/11 01:00:44;;;;;;;7.87;3.67;;;;;;;16.05;82.87;96890.81;3597329;39;20443;-74
2021/08/11 01:03:17;;;;;;;6.17;2.80;;;;;;;15.99;82.85;96889.56;3596194;39;20494;-73
2021/08/11 01:05:46;;;;;;;15.60;3.87;;;;;;;15.96;83.33;96892.47;3597231;39;20450;-74
2021/08/11 01:08:17;;;;;;;6.97;3.73;;;;;;;15.96;83.06;96889.81;3596564;39;20532;-75
2021/08/11 01:10:48;;;;;;;5.03;3.13;;;;;;;15.97;82.54;96891.47;3595900;39;20898;-73
2021/08/11 01:13:17;;;;;;;5.77;3.30;;;;;;;15.99;82.28;96892.22;3593697;39;20559;-73
2021/08/11 01:15:46;;;;;;;4.57;3.10;;;;;;;15.93;82.42;96898.00;3597763;39;20490;-75
2021/08/11 01:18:15;;;;;;;8.63;3.10;;;;;;;15.91;82.65;96901.75;3598340;39;20514;-76
2021/08/11 01:20:52;;;;;;;11.70;3.70;;;;;;;15.83;83.31;96897.09;3598268;39;20947;-75
2021/08/11 01:23:25;;;;;;;5.87;4.00;;;;;;;15.78;83.06;96899.31;3600757;39;20861;-75
2021/08/11 01:26:01;;;;;;;10.83;3.40;;;;;;;15.75;83.60;96894.28;3598156;39;21187;-75
2021/08/11 01:28:45;;;;;;;15.10;3.63;;;;;;;15.80;83.47;96892.09;3597934;39;20528;-76
2021/08/11 01:31:16;;;;;;;13.03;4.50;;;;;;;15.78;83.57;96892.22;3595723;39;20778;-76
2021/08/11 01:34:00;;;;;;;5.27;3.23;;;;;;;15.79;83.54;96885.13;3598786;39;20442;-74
2021/08/11 01:36:52;;;;;;;9.60;4.17;;;;;;;15.76;83.43;96882.78;3597601;39;20850;-73
2021/08/11 01:39:30;;;;;;;7.13;3.57;;;;;;;15.67;83.92;96888.81;3597787;39;20451;-75
2021/08/11 01:42:01;;;;;;;9.63;3.73;;;;;;;15.62;84.47;96889.16;3597628;39;20923;-74
2021/08/11 01:44:37;;;;;;;9.53;3.97;;;;;;;15.60;84.16;96886.69;3600290;39;20904;-73
2021/08/11 01:47:09;;;;;;;9.80;3.93;;;;;;;15.51;83.90;96876.91;3598977;39;20669;-73
2021/08/11 01:49:39;;;;;;;9.10;3.80;;;;;;;15.52;84.06;96883.81;3597983;39;20552;-74
2021/08/11 01:52:08;;;;;;;6.70;3.40;;;;;;;15.44;84.31;96883.66;3598432;39;20535;-73
2021/08/11 01:54:36;;;;;;;6.30;4.00;;;;;;;15.38;84.15;96886.81;3599499;39;20454;-73
2021/08/11 01:57:06;;;;;;;7.93;3.20;;;;;;;15.41;83.56;96878.63;3596041;39;20521;-73
2021/08/11 01:59:34;;;;;;;3.80;3.03;;;;;;;15.31;84.10;96878.56;3597930;39;20863;-73
2021/08/11 02:02:02;;;;;;;11.60;3.53;;;;;;;15.30;83.78;96879.53;3597000;39;21101;-74
2021/08/11 02:04:31;;;;;;;6.10;3.30;;;;;;;15.17;84.43;96878.88;3597495;39;20535;-74
2021/08/11 02:07:01;;;;;;;4.53;2.97;;;;;;;15.15;84.96;96872.88;3594877;39;20526;-74
2021/08/11 02:09:29;;;;;;;9.40;3.33;;;;;;;15.18;84.73;96880.56;3596815;39;21093;-73
2021/08/11 02:11:58;;;;;;;6.23;3.50;;;;;;;15.12;84.91;96883.69;3596508;39;20520;-74
2021/08/11 02:14:26;;;;;;;6.40;3.50;;;;;;;15.07;84.89;96886.69;3596454;39;20966;-73
2021/08/11 02:16:54;;;;;;;8.00;3.13;;;;;;;15.12;84.35;96884.53;3595605;39;20460;-74
2021/08/11 02:19:22;;;;;;;7.70;3.23;;;;;;;15.07;84.80;96888.50;3595913;39;20862;-72
2021/08/11 02:21:50;;;;;;;6.77;3.60;;;;;;;14.99;85.01;96881.22;3597294;39;20786;-72
2021/08/11 02:24:25;;;;;;;4.03;2.67;;;;;;;14.91;85.12;96881.84;3597361;39;20528;-73
2021/08/11 02:27:00;;;;;;;9.00;3.07;;;;;;;14.89;85.29;96883.78;3594500;39;20722;-73
2021/08/11 02:29:41;;;;;;;5.57;3.03;;;;;;;14.92;85.34;96890.63;3597064;39;20815;-72
2021/08/11 02:32:17;;;;;;;6.50;3.20;;;;;;;14.83;85.75;96900.94;3596624;39;20462;-75
2021/08/11 02:34:53;;;;;;;7.70;3.93;;;;;;;14.85;85.45;96899.97;3597007;39;20665;-72
2021/08/11 02:37:28;;;;;;;7.30;3.80;;;;;;;14.78;85.65;96900.47;3592845;39;20571;-74
2021/08/11 02:40:10;;;;;;;7.70;3.90;;;;;;;14.77;85.78;96897.97;3598106;39;20684;-72
2021/08/11 02:42:42;;;;;;;7.10;3.00;;;;;;;14.80;85.81;96900.38;3596384;39;21330;-76
2021/08/11 02:45:19;;;;;;;7.93;3.07;;;;;;;14.56;86.03;96890.84;3597248;39;20479;-74
2021/08/11 02:47:48;;;;;;;5.00;3.60;;;;;;;14.52;85.98;96899.91;3595282;39;20447;-73
2021/08/11 02:50:19;;;;;;;6.23;2.83;;;;;;;14.52;86.27;96893.78;3596065;39;20895;-75
2021/08/11 02:52:47;;;;;;;9.10;3.67;;;;;;;14.29;87.50;96898.25;3595581;39;20471;-76
2021/08/11 02:55:18;;;;;;;5.47;3.80;;;;;;;14.36;87.09;96888.91;3595982;39;20490;-74
2021/08/11 02:57:48;;;;;;;6.40;3.13;;;;;;;14.42;86.50;96886.63;3596335;39;20692;-74
2021/08/11 03:00:16;;;;;;;8.43;3.13;;;;;;;14.56;86.33;96884.69;3597705;39;20531;-74
2021/08/11 03:02:45;;;;;;;5.47;2.97;;;;;;;14.55;85.70;96880.38;3596545;39;20481;-74
2021/08/11 03:05:13;;;;;;;5.80;2.70;;;;;;;14.57;85.76;96886.41;3597665;39;20523;-75
2021/08/11 03:07:43;;;;;;;5.17;3.23;;;;;;;14.51;85.23;96871.06;3595545;39;20859;-73
2021/08/11 03:10:12;;;;;;;11.53;4.23;;;;;;;14.58;85.27;96888.91;3595702;39;20944;-74
2021/08/11 03:12:45;;;;;;;8.43;3.53;;;;;;;14.59;85.78;96885.31;3597278;39;20474;-73
2021/08/11 03:15:15;;;;;;;5.13;3.13;;;;;;;14.60;85.45;96884.38;3597322;39;20454;-73
2021/08/11 03:17:45;;;;;;;10.50;4.50;;;;;;;14.58;85.55;96883.66;3596425;39;20487;-74
2021/08/11 03:20:13;;;;;;;4.27;3.47;;;;;;;14.69;85.88;96895.94;3596562;39;21006;-72
2021/08/11 03:22:41;;;;;;;7.27;3.83;;;;;;;14.80;85.59;96895.91;3596387;39;20843;-74
2021/08/11 03:25:10;;;;;;;5.70;3.43;;;;;;;14.78;86.06;96892.56;3596293;39;20721;-74
2021/08/11 03:27:38;;;;;;;6.87;3.20;;;;;;;14.73;86.40;96889.47;3595303;39;20755;-73
2021/08/11 03:30:09;;;;;;;6.00;3.70;;;;;;;14.40;87.37;96895.63;3596213;39;20487;-73
2021/08/11 03:32:37;;;;;;;10.20;3.73;;;;;;;14.51;86.80;96894.78;3595080;39;20757;-73
2021/08/11 03:35:05;;;;;;;6.73;3.83;;;;;;;14.62;86.38;96890.34;3598994;39;20516;-72
2021/08/11 03:37:34;;;;;;;7.33;3.80;;;;;;;14.63;86.38;96902.53;3595351;39;20916;-73
2021/08/11 03:40:02;;;;;;;8.70;3.30;;;;;;;14.55;86.40;96896.19;3595730;39;20471;-73
2021/08/11 03:42:30;;;;;;;14.70;3.77;;;;;;;14.65;85.85;96898.97;3596024;39;20548;-74
2021/08/11 03:44:58;;;;;;;5.67;3.00;;;;;;;14.56;86.65;96897.84;3596138;39;20564;-74
2021/08/11 03:47:27;;;;;;;8.13;3.70;;;;;;;14.67;86.00;96895.22;3596561;39;20463;-76
2021/08/11 03:49:55;;;;;;;7.83;3.43;;;;;;;14.81;85.79;96897.59;3597507;39;20753;-75
2021/08/11 03:52:23;;;;;;;9.50;3.50;;;;;;;14.82;85.94;96899.28;3597162;39;21139;-74
2021/08/11 03:54:51;;;;;;;7.83;3.20;;;;;;;14.89;85.62;96898.78;3597829;39;20553;-74
2021/08/11 03:57:19;;;;;;;4.77;3.20;;;;;;;14.87;86.01;96892.78;3598256;39;20500;-74
2021/08/11 03:59:47;;;;;;;9.03;3.90;;;;;;;14.92;85.64;96898.53;3598675;39;20722;-75
2021/08/11 04:02:15;;;;;;;6.77;3.57;;;;;;;14.45;87.91;96901.38;3597275;39;20787;-74
2021/08/11 04:04:44;;;;;;;5.20;3.73;;;;;;;14.52;87.62;96905.16;3598358;39;20443;-76
2021/08/11 04:07:12;;;;;;;8.13;4.10;;;;;;;14.68;86.69;96896.94;3597640;39;20559;-74
2021/08/11 04:09:40;;;;;;;9.17;4.00;;;;;;;14.67;86.69;96902.31;3598096;39;20548;-73
2021/08/11 04:12:09;;;;;;;6.00;3.60;;;;;;;14.68;86.61;96893.44;3596487;39;21144;-74
2021/08/11 04:14:38;;;;;;;6.80;3.80;;;;;;;14.63;86.64;96901.72;3597292;39;20435;-73
2021/08/11 04:17:07;;;;;;;10.63;4.27;;;;;;;14.68;85.90;96904.84;3596351;39;20536;-74
2021/08/11 04:19:35;;;;;;;5.47;3.30;;;;;;;14.61;86.37;96898.38;3598228;39;20722;-76
2021/08/11 04:22:05;;;;;;;8.07;3.80;;;;;;;14.50;86.80;96901.81;3595928;39;20543;-78
2021/08/11 04:24:33;;;;;;;9.00;4.70;;;;;;;14.52;86.75;96904.34;3595756;39;20459;-76
2021/08/11 04:27:01;;;;;;;5.30;3.57;;;;;;;14.55;86.71;96898.84;3595466;39;20831;-77
2021/08/11 04:29:29;;;;;;;6.30;3.60;;;;;;;14.49;87.20;96896.69;3595009;39;20544;-75
2021/08/11 04:31:56;;;;;;;9.27;4.57;;;;;;;14.54;87.49;96899.78;3594104;39;20891;-74
2021/08/11 04:34:24;;;;;;;5.53;3.30;;;;;;;14.53;86.80;96901.59;3596159;39;20439;-74
2021/08/11 04:36:52;;;;;;;8.40;3.60;;;;;;;14.59;86.18;96900.28;3594697;39;20765;-75
2021/08/11 04:39:22;;;;;;;9.70;4.03;;;;;;;14.64;85.29;96890.19;3602267;39;20444;-75
2021/08/11 04:41:50;;;;;;;5.20;4.10;;;;;;;14.71;85.82;96909.84;3596655;39;20479;-74
2021/08/11 04:44:18;;;;;;;7.70;4.03;;;;;;;14.75;85.88;96899.88;3595567;39;20459;-76
2021/08/11 04:46:46;;;;;;;9.10;4.67;;;;;;;14.74;85.96;96906.97;3595410;39;20477;-76
2021/08/11 04:49:13;;;;;;;8.87;3.73;;;;;;;14.75;86.00;96910.44;3594615;39;20705;-77
2021/08/11 04:51:42;;;;;;;6.37;3.63;;;;;;;14.80;85.70;96909.09;3595206;39;20716;-74
2021/08/11 04:54:09;;;;;;;5.27;3.43;;;;;;;14.75;85.93;96908.63;3596220;39;20436;-75
2021/08/11 04:56:39;;;;;;;5.93;3.57;;;;;;;14.76;86.30;96907.69;3596474;39;20539;-78
2021/08/11 04:59:07;;;;;;;8.40;3.70;;;;;;;14.94;85.67;96909.78;3596366;39;20435;-75
2021/08/11 05:01:34;;;;;;;5.20;3.50;;;;;;;15.08;85.03;96916.56;3595763;39;21222;-75
2021/08/11 05:04:03;;;;;;;5.37;3.20;;;;;;;15.10;84.91;96914.66;3595878;39;20488;-75
2021/08/11 05:06:31;;;;;;;6.10;3.47;;;;;;;14.93;85.29;96911.56;3595566;39;20810;-75
2021/08/11 05:08:59;;;;;;;8.23;4.20;;;;;;;15.12;84.20;96904.81;3595100;39;20883;-74
2021/08/11 05:11:27;;;;;;;5.90;3.93;;;;;;;14.71;86.01;96915.09;3595328;39;20832;-75
2021/08/11 05:13:56;;;;;;;8.00;3.90;;;;;;;14.93;86.11;96908.94;3599035;39;20458;-76
2021/08/11 05:16:25;;;;;;;11.60;5.40;;;;;;;15.01;86.19;96906.53;3597708;39;20851;-75
2021/08/11 05:18:53;;;;;;;9.97;4.23;;;;;;;15.06;85.90;96903.50;3591216;39;20708;-74
2021/08/11 05:21:23;;;;;;;10.87;4.57;;;;;;;15.46;84.88;96915.19;3596418;39;20841;-74
2021/08/11 05:23:51;;;;;;;7.90;4.40;;;;;;;15.60;84.29;96912.22;3594937;39;20884;-74
2021/08/11 05:26:20;;;;;;;14.37;4.40;;;;;;;15.61;85.34;96904.19;3595793;39;20943;-75
2021/08/11 05:28:51;;;;;;;4.97;3.73;;;;;;;15.75;85.50;96910.13;3600448;39;20831;-75
2021/08/11 05:31:21;;;;;;;9.63;3.97;;;;;;;15.86;84.34;96918.00;3596852;39;20455;-74
2021/08/11 05:33:49;;;;;;;8.43;3.87;;;;;;;16.11;83.96;96921.16;3597339;39;20843;-74
2021/08/11 05:36:17;;;;;;;9.50;4.07;;;;;;;16.01;83.28;96913.19;3598824;39;20872;-75
2021/08/11 05:38:46;;;;;;;12.10;5.30;;;;;;;15.71;83.43;96919.25;3597946;39;20897;-74
2021/08/11 05:41:14;;;;;;;8.33;5.10;;;;;;;15.71;83.34;96933.28;3597604;39;20692;-74
2021/08/11 05:43:42;;;;;;;9.87;5.17;;;;;;;15.81;82.69;96930.72;3604322;39;20455;-74
2021/08/11 05:46:10;;;;;;;11.87;5.67;;;;;;;15.92;82.49;96928.03;3600880;39;20566;-74
2021/08/11 05:48:39;;;;;;;8.90;5.07;;;;;;;15.79;82.46;96925.56;3599927;39;20442;-74
2021/08/11 05:51:07;;;;;;;9.40;5.13;;;;;;;15.83;83.21;96926.16;3598324;39;20712;-74
2021/08/11 05:53:35;;;;;;;11.50;5.10;;;;;;;15.80;83.61;96921.97;3598843;39;20476;-76
2021/08/11 05:56:03;;;;;;;8.40;4.73;;;;;;;15.98;83.24;96924.84;3602317;39;20835;-75
2021/08/11 05:58:32;;;;;;;10.20;4.57;;;;;;;16.27;81.89;96926.81;3596895;39;20458;-77
2021/08/11 06:01:00;;;;;;;10.10;4.30;;;;;;;16.63;81.24;96931.66;3597980;39;20551;-74
2021/08/11 06:03:28;;;;;;;9.93;3.90;;;;;;;16.96;80.21;96933.16;3600072;39;20906;-76
2021/08/11 06:05:58;;;;;;;15.03;4.23;;;;;;;17.44;79.17;96937.59;3596498;39;20569;-74
2021/08/11 06:08:26;;;;;;;8.63;4.17;;;;;;;17.80;76.66;96940.50;3599461;39;20826;-74
2021/08/11 06:10:54;;;;;;;10.83;4.33;;;;;;;17.64;77.27;96933.16;3597814;39;20833;-76
2021/08/11 06:13:22;;;;;;;11.23;3.87;;;;;;;17.92;76.55;96935.91;3597110;39;20962;-75
2021/08/11 06:15:50;;;;;;;15.17;4.37;;;;;;;17.59;77.34;96938.84;3598874;39;20929;-76
2021/08/11 06:18:18;;;;;;;12.23;4.97;;;;;;;17.17;78.32;96941.81;3598438;39;20463;-74
2021/08/11 06:20:47;;;;;;;11.00;5.10;;;;;;;17.04;79.38;96943.88;3602808;39;20461;-77
2021/08/11 06:23:17;;;;;;;12.40;4.30;;;;;;;16.29;81.88;96935.44;3603383;39;20509;-76
2021/08/11 06:25:44;;;;;;;7.53;4.17;;;;;;;16.21;82.50;96937.91;3602261;39;20483;-75
2021/08/11 06:28:13;;;;;;;6.73;4.20;;;;;;;15.57;85.56;96930.97;3596758;39;20731;-76
2021/08/11 06:30:42;;;;;;;9.47;5.33;;;;;;;16.38;83.31;96939.91;3598277;39;20449;-75
2021/08/11 06:33:10;;;;;;;11.13;4.90;;;;;;;17.51;79.86;96930.78;3597582;39;20490;-77
2021/08/11 06:35:38;;;;;;;7.70;3.70;;;;;;;17.96;78.18;96935.47;3598649;39;20535;-76
2021/08/11 06:38:06;;;;;;;5.73;3.63;;;;;;;18.62;75.90;96931.06;3597584;39;20532;-78
2021/08/11 06:40:38;;;;;;;6.20;4.00;;;;;;;19.34;73.73;96933.81;3597306;39;20777;-75
2021/08/11 06:43:06;;;;;;;10.83;4.10;;;;;;;19.89;71.04;96941.56;3605560;39;21105;-75
2021/08/11 06:45:34;;;;;;;7.43;3.60;;;;;;;19.98;68.92;96941.66;3600605;39;20498;-77
2021/08/11 06:48:02;;;;;;;6.83;3.97;;;;;;;19.49;71.16;96948.22;3598080;39;20484;-76
2021/08/11 06:50:30;;;;;;;6.27;3.83;;;;;;;19.67;70.71;96939.41;3601924;39;20488;-75
2021/08/11 06:52:58;;;;;;;5.37;3.77;;;;;;;20.24;68.90;96931.81;3600280;39;20585;-76
2021/08/11 06:55:26;;;;;;;9.13;3.40;;;;;;;20.42;68.16;96931.75;3599106;39;20496;-78
2021/08/11 06:57:55;;;;;;;9.90;4.13;;;;;;;20.01;67.94;96936.81;3597934;39;20471;-75
2021/08/11 07:00:23;;;;;;;14.37;4.40;;;;;;;20.31;67.70;96940.84;3599108;39;20483;-76
2021/08/11 07:02:54;;;;;;;5.97;4.00;;;;;;;20.82;65.51;96937.44;3598277;39;20491;-77
2021/08/11 07:05:23;;;;;;;10.07;3.57;;;;;;;20.76;66.30;96941.56;3599560;39;20458;-78
2021/08/11 07:07:51;;;;;;;11.40;4.63;;;;;;;21.09;65.26;96934.50;3597842;39;20866;-74
2021/08/11 07:10:20;;;;;;;6.57;3.73;;;;;;;21.09;65.38;96931.00;3607109;39;20520;-74
2021/08/11 07:12:49;;;;;;;6.73;4.00;;;;;;;20.49;67.23;96932.78;3603313;39;20493;-75
2021/08/11 07:15:19;;;;;;;10.83;4.67;;;;;;;20.90;66.13;96940.94;3599067;39;20867;-74
2021/08/11 07:17:54;;;;;;;7.63;3.30;;;;;;;20.85;66.80;96937.09;3601195;39;20458;-74
2021/08/11 07:20:22;;;;;;;15.23;3.90;;;;;;;21.26;65.09;96937.19;3597990;39;20725;-73
2021/08/11 07:22:50;;;;;;;7.23;4.50;;;;;;;21.10;67.09;96938.00;3601041;39;20560;-74
2021/08/11 07:25:20;;;;;;;4.17;3.00;;;;;;;21.97;63.18;96935.72;3598602;39;20831;-73
2021/08/11 07:27:48;;;;;;;6.13;3.87;;;;;;;22.41;62.05;96937.16;3598791;39;20467;-75
2021/08/11 07:30:16;;;;;;;5.37;3.57;;;;;;;22.66;61.43;96933.41;3603090;39;20994;-73
2021/08/11 07:32:45;;;;;;;7.30;3.00;;;;;;;22.63;59.34;96933.75;3598547;39;20477;-75
2021/08/11 07:35:14;;;;;;;15.13;3.90;;;;;;;22.23;60.21;96940.84;3595950;39;20448;-73
2021/08/11 07:37:50;;;;;;;7.10;3.60;;;;;;;22.79;60.04;96932.81;3594946;39;20803;-75
2021/08/11 07:40:19;;;;;;;8.97;3.47;;;;;;;22.53;59.06;96933.13;3593672;39;20732;-74
2021/08/11 07:42:47;;;;;;;6.27;4.47;;;;;;;22.99;58.68;96930.59;3595356;39;20470;-74
2021/08/11 07:45:17;;;;;;;9.00;3.60;;;;;;;23.06;58.42;96936.06;3598069;39;20440;-72
2021/08/11 07:47:51;;;;;;;5.20;3.30;;;;;;;23.05;58.53;96932.56;3593736;39;20474;-73
2021/08/11 07:50:22;;;;;;;7.13;3.63;;;;;;;22.70;60.10;96923.22;3596190;39;20447;-75
2021/08/11 07:52:50;;;;;;;6.10;3.37;;;;;;;23.35;57.28;96935.38;3594700;39;20475;-77
2021/08/11 07:55:19;;;;;;;3.83;2.70;;;;;;;23.14;57.14;96940.53;3596010;39;20740;-73
2021/08/11 07:57:47;;;;;;;6.80;3.40;;;;;;;22.27;59.72;96931.53;3595618;39;21089;-74
2021/08/11 08:00:18;;;;;;;8.93;3.20;;;;;;;22.70;59.49;96929.38;3597368;39;20839;-73
2021/08/11 08:02:48;;;;;;;9.77;3.03;;;;;;;22.59;59.73;96926.25;3598293;39;20483;-70
2021/08/11 08:05:17;;;;;;;8.70;4.10;;;;;;;22.41;59.95;96926.50;3597120;39;20789;-75
2021/08/11 08:07:51;;;;;;;6.00;3.67;;;;;;;22.51;60.51;96921.78;3598090;39;20809;-75
2021/08/11 08:10:19;;;;;;;6.63;3.47;;;;;;;22.83;59.65;96920.78;3597000;39;20900;-75
2021/08/11 08:12:48;;;;;;;5.50;3.30;;;;;;;23.73;57.40;96910.53;3596618;39;20460;-74
2021/08/11 08:15:17;;;;;;;8.13;3.63;;;;;;;23.11;57.64;96912.34;3596215;39;20910;-74
2021/08/11 08:17:48;;;;;;;11.97;3.27;;;;;;;23.33;57.26;96921.38;3594784;39;20522;-73
2021/08/11 08:20:17;;;;;;;5.57;3.17;;;;;;;23.18;57.31;96923.16;3596964;39;20440;-75
2021/08/11 08:22:46;;;;;;;7.73;3.60;;;;;;;23.14;58.56;96917.31;3594752;39;20762;-74
2021/08/11 08:25:20;;;;;;;9.10;3.33;;;;;;;23.10;56.29;96922.19;3599076;39;21067;-74
2021/08/11 08:27:49;;;;;;;11.10;3.23;;;;;;;23.35;55.78;96924.69;3598204;39;20459;-72
2021/08/11 08:30:34;;;;;;;8.17;3.00;;;;;;;23.55;55.07;96914.34;3595872;39;21010;-73
2021/08/11 08:33:04;;;;;;;3.60;2.70;;;;;;;23.78;55.96;96930.41;3595354;39;20860;-74
2021/08/11 08:35:32;;;;;;;5.70;3.37;;;;;;;23.45;55.72;96929.81;3600819;39;20851;-74
2021/08/11 08:38:01;;;;;;;8.73;3.43;;;;;;;23.48;55.46;96929.44;3598337;39;20739;-74
2021/08/11 08:40:31;;;;;;;18.53;11.00;;;;;;;23.86;54.39;96926.84;3596404;39;20445;-74
2021/08/11 08:43:00;;;;;;;5.57;3.43;;;;;;;23.77;54.48;96931.38;3595485;39;20504;-74
2021/08/11 08:45:29;;;;;;;4.73;3.50;;;;;;;24.61;53.94;96915.16;3597326;39;20799;-75
2021/08/11 08:47:57;;;;;;;7.80;3.80;;;;;;;24.56;53.60;96922.94;3589398;39;20518;-75
2021/08/11 08:50:27;;;;;;;4.30;3.30;;;;;;;25.52;51.46;96919.28;3601208;39;21145;-74
2021/08/11 08:52:56;;;;;;;5.13;3.37;;;;;;;24.95;50.00;96924.47;3602738;39;20469;-74
2021/08/11 08:55:26;;;;;;;7.77;3.20;;;;;;;24.39;51.08;96922.25;3603919;39;20467;-74
2021/08/11 08:57:54;;;;;;;4.30;3.10;;;;;;;24.59;51.07;96922.56;3599133;39;20851;-74
2021/08/11 09:00:22;;;;;;;3.53;2.93;;;;;;;24.72;51.03;96923.72;3599129;39;20548;-74
2021/08/11 09:02:51;;;;;;;6.73;2.67;;;;;;;24.93;51.33;96918.44;3598600;39;20665;-76
2021/08/11 09:05:19;;;;;;;4.10;3.07;;;;;;;24.66;51.47;96918.13;3599530;39;20465;-75
2021/08/11 09:07:49;;;;;;;4.30;3.20;;;;;;;24.73;51.56;96917.38;3599861;39;20459;-74
2021/08/11 09:10:21;;;;;;;4.83;2.83;;;;;;;24.81;50.62;96925.28;3601758;39;20877;-75
2021/08/11 09:13:13;;;;;;;9.50;3.00;;;;;;;25.24;50.93;96920.03;3600099;39;20480;-74
2021/08/11 09:15:44;;;;;;;5.60;2.63;;;;;;;24.66;50.78;96928.84;3604504;39;20645;-74
2021/08/11 09:18:19;;;;;;;10.77;2.60;;;;;;;23.74;52.72;96923.72;3602722;39;20447;-74
2021/08/11 09:20:48;;;;;;;9.87;2.83;;;;;;;24.02;53.40;96928.50;3601065;39;20450;-74
2021/08/11 09:23:34;;;;;;;9.23;3.47;;;;;;;24.74;51.31;96927.91;3605428;39;20555;-74
2021/08/11 09:26:05;;;;;;;30.90;20.73;;;;;;;25.12;51.01;96929.56;3602944;39;21144;-74
2021/08/11 09:28:36;;;;;;;12.13;3.60;;;;;;;25.44;49.10;96928.28;3604748;39;20471;-75
2021/08/11 09:31:24;;;;;;;8.40;3.10;;;;;;;25.92;48.86;96930.41;3603869;39;20815;-75
2021/08/11 09:33:53;;;;;;;6.13;3.53;;;;;;;25.65;48.11;96922.91;3605237;39;20442;-75
2021/08/11 09:36:22;;;;;;;4.43;2.73;;;;;;;24.60;49.94;96926.06;3602419;39;20523;-76
2021/08/11 09:39:00;;;;;;;8.13;5.00;;;;;;;26.96;46.59;96927.72;3602150;39;20837;-74
2021/08/11 09:41:28;;;;;;;6.30;3.23;;;;;;;25.85;48.16;96924.94;3598055;39;20451;-75
2021/08/11 09:44:09;;;;;;;3.77;2.60;;;;;;;26.76;46.06;96924.13;3599165;39;20590;-75
2021/08/11 09:46:37;;;;;;;7.20;3.10;;;;;;;25.93;47.27;96924.00;3597874;39;20507;-75
2021/08/11 09:49:17;;;;;;;7.07;3.00;;;;;;;25.98;46.03;96917.03;3597878;39;20440;-76
2021/08/11 09:51:57;;;;;;;6.80;2.83;;;;;;;26.49;44.83;96929.31;3596793;39;20940;-75
2021/08/11 09:54:30;;;;;;;3.83;2.47;;;;;;;27.12;44.53;96931.06;3593436;39;20480;-75
2021/08/11 09:56:58;;;;;;;6.87;2.80;;;;;;;27.03;43.39;96925.88;3596337;39;20582;-75
2021/08/11 09:59:26;;;;;;;5.47;3.17;;;;;;;26.83;45.39;96920.44;3599704;39;20813;-76
2021/08/11 10:02:16;;;;;;;4.50;2.90;;;;;;;27.03;43.43;96925.88;3596242;39;20507;-75
2021/08/11 10:04:44;;;;;;;6.53;2.47;;;;;;;26.68;44.44;96929.66;3595835;39;20463;-75
2021/08/11 10:07:12;;;;;;;4.13;2.13;;;;;;;27.00;43.32;96926.28;3597240;39;20847;-75
2021/08/11 10:09:42;;;;;;;5.90;2.57;;;;;;;27.50;42.62;96931.41;3596093;39;20456;-75
2021/08/11 10:12:28;;;;;;;2.77;2.13;;;;;;;27.71;41.94;96927.69;3597089;39;20593;-74
2021/08/11 10:14:58;;;;;;;5.43;2.63;;;;;;;28.15;41.27;96928.13;3596589;39;20471;-75
2021/08/11 10:17:30;;;;;;;5.00;2.50;;;;;;;28.26;42.48;96921.28;3597844;39;20475;-75
2021/08/11 10:19:59;;;;;;;5.83;2.93;;;;;;;27.75;43.01;96928.09;3598610;39;21062;-75
2021/08/11 10:22:29;;;;;;;4.73;2.47;;;;;;;27.66;43.42;96929.31;3597233;39;20510;-74
2021/08/11 10:24:58;;;;;;;4.23;2.77;;;;;;;28.02;43.17;96931.66;3601100;39;20827;-74
2021/08/11 10:27:27;;;;;;;6.57;2.40;;;;;;;28.62;40.45;96923.50;3597514;39;20547;-75
2021/08/11 10:29:55;;;;;;;5.87;3.10;;;;;;;28.61;41.07;96926.41;3597855;39;20544;-74
2021/08/11 10:32:24;;;;;;;7.53;2.60;;;;;;;28.71;42.31;96926.78;3596021;39;20944;-74
2021/08/11 10:34:54;;;;;;;10.23;2.67;;;;;;;28.89;43.27;96926.94;3597683;39;20487;-75
2021/08/11 10:37:24;;;;;;;5.97;2.80;;;;;;;28.12;43.85;96934.75;3598768;39;20626;-73
2021/08/11 10:39:53;;;;;;;4.30;2.60;;;;;;;27.86;44.05;96932.06;3598949;39;20451;-75
2021/08/11 10:42:23;;;;;;;3.90;2.30;;;;;;;28.27;43.63;96939.09;3596785;39;20863;-75
2021/08/11 10:44:57;;;;;;;8.17;2.67;;;;;;;28.74;43.58;96935.28;3597891;39;21018;-74
2021/08/11 10:47:30;;;;;;;4.80;2.77;;;;;;;27.34;46.27;96947.91;3595951;39;20471;-75
2021/08/11 10:50:00;;;;;;;15.63;3.60;;;;;;;27.81;45.93;96954.19;3597237;39;21067;-74
2021/08/11 10:52:29;;;;;;;10.63;2.83;;;;;;;29.37;42.52;96945.38;3597524;39;20459;-74
2021/08/11 10:54:58;;;;;;;7.63;3.13;;;;;;;30.07;40.30;96935.53;3597247;39;20456;-74
2021/08/11 10:57:48;;;;;;;217.90;123.80;;;;;;;30.13;42.50;96935.50;3596292;39;20465;-73
2021/08/11 11:00:43;;;;;;;11.30;6.63;;;;;;;29.85;42.95;96946.72;3592520;39;20464;-73
2021/08/11 11:08:37;;;;;;;56.57;34.70;;;;;;;29.93;41.84;96951.03;2603365;54;20477;-74
2021/08/11 11:11:42;;;;;;;19.07;11.90;;;;;;;28.84;43.48;96940.22;2601285;36;20418;-75
2021/08/11 11:14:56;;;;;;;9.37;4.00;;;;;;;27.32;46.61;96939.22;2600461;54;20453;-75
2021/08/11 11:17:28;;;;;;;3.63;2.87;;;;;;;28.11;44.08;96933.09;2601142;36;20904;-74
2021/08/11 11:20:23;;;;;;;9.93;2.97;;;;;;;28.64;43.76;96942.97;2600605;54;20886;-74
2021/08/11 11:23:08;;;;;;;8.10;3.53;;;;;;;29.13;41.83;96938.06;2600600;36;20488;-75
2021/08/11 11:26:05;;;;;;;2.83;2.00;;;;;;;29.75;41.40;96935.59;2601655;36;20961;-74
2021/08/11 11:28:53;;;;;;;8.27;2.70;;;;;;;30.71;38.74;96931.59;2599130;54;20445;-74
2021/08/11 11:31:37;;;;;;;4.23;2.63;;;;;;;30.63;37.81;96918.38;2599830;31;20410;-75
2021/08/11 11:34:23;;;;;;;4.13;3.00;;;;;;;28.94;40.89;96932.50;2600552;54;20414;-75
2021/08/11 11:37:22;;;;;;;5.80;2.60;;;;;;;30.36;39.59;96925.94;2599780;36;20417;-74
2021/08/11 11:40:19;;;;;;;4.93;2.70;;;;;;;30.33;40.56;96929.13;2599280;46;20945;-74
2021/08/11 11:42:51;;;;;;;9.30;2.57;;;;;;;30.67;39.98;96932.28;2599096;36;20438;-74
2021/08/11 11:45:46;;;;;;;7.93;2.30;;;;;;;30.76;39.77;96925.53;2598649;54;20938;-74
2021/08/11 11:48:17;;;;;;;5.00;2.57;;;;;;;30.94;38.35;96920.13;2563016;38;2004150;-74
2021/08/11 11:50:51;;;;;;;5.47;2.40;;;;;;;31.06;38.52;96930.19;2601841;36;20749;-74
2021/08/11 11:53:30;;;;;;;3.23;2.20;;;;;;;31.62;37.37;96922.75;2602439;38;21158;-75
2021/08/11 11:56:10;;;;;;;3.27;2.90;;;;;;;30.87;39.05;96924.78;2600848;36;21030;-74